createdAt,value
2023-01-09T00:01:29.505Z,3.87
2023-01-09T00:06:31.598Z,4.20
2023-01-09T00:11:34.015Z,4.07
2023-01-09T00:16:37.499Z,4.73
2023-01-09T00:21:39.749Z,4.47
2023-01-09T00:26:41.820Z,4.73
2023-01-09T00:31:45.304Z,3.80
2023-01-09T00:36:47.513Z,4.37
2023-01-09T00:41:54.156Z,4.03
2023-01-09T00:47:00.583Z,4.20
2023-01-09T00:52:04.577Z,4.33
2023-01-09T00:57:07.147Z,4.50
2023-01-09T01:02:11.025Z,5.40
2023-01-09T01:07:13.489Z,4.97
2023-01-09T01:12:15.772Z,5.27
2023-01-09T01:17:19.408Z,5.10
2023-01-09T01:22:21.456Z,5.53
2023-01-09T01:27:23.828Z,5.13
2023-01-09T01:32:27.370Z,4.30
2023-01-09T01:37:29.697Z,5.07
2023-01-09T01:42:32.779Z,5.70
2023-01-09T01:47:49.284Z,4.43
2023-01-09T01:52:57.002Z,5.63
2023-01-09T01:58:03.050Z,5.50
2023-01-09T02:03:07.370Z,5.07
2023-01-09T02:08:09.769Z,5.10
2023-01-09T02:13:13.517Z,5.27
2023-01-09T02:18:44.091Z,5.77
2023-01-09T02:24:07.972Z,5.33
2023-01-09T02:29:45.517Z,4.70
2023-01-09T02:34:56.841Z,5.93
2023-01-09T02:40:09.405Z,5.57
2023-01-09T02:45:11.500Z,6.63
2023-01-09T02:50:21.524Z,5.73
2023-01-09T02:55:37.033Z,6.80
2023-01-09T03:00:51.185Z,6.63
2023-01-09T03:05:58.564Z,6.30
2023-01-09T03:11:02.928Z,5.80
2023-01-09T03:16:08.264Z,5.83
2023-01-09T03:21:11.888Z,5.93
2023-01-09T03:26:14.160Z,5.90
2023-01-09T03:31:16.401Z,5.93
2023-01-09T03:36:21.499Z,5.83
2023-01-09T03:41:23.647Z,4.60
2023-01-09T03:46:25.621Z,5.97
2023-01-09T03:51:28.684Z,6.37
2023-01-09T03:56:30.962Z,6.63
2023-01-09T04:01:33.516Z,7.07
2023-01-09T04:06:37.355Z,6.03
2023-01-09T04:11:39.602Z,6.70
2023-01-09T04:16:41.641Z,6.63
2023-01-09T04:21:45.305Z,7.23
2023-01-09T04:26:47.585Z,8.10
2023-01-09T04:31:49.749Z,7.97
2023-01-09T04:36:53.339Z,8.23
2023-01-09T04:41:55.443Z,9.27
2023-01-09T04:46:58.524Z,8.70
2023-01-09T04:52:02.016Z,8.13
2023-01-09T04:57:04.492Z,9.13
2023-01-09T05:02:07.076Z,8.57
2023-01-09T05:07:10.187Z,8.20
2023-01-09T05:12:12.038Z,8.63
2023-01-09T05:17:13.784Z,7.83
2023-01-09T05:22:17.341Z,8.10
2023-01-09T05:27:19.397Z,7.97
2023-01-09T05:32:21.458Z,9.10
2023-01-09T05:37:24.585Z,8.17
2023-01-09T05:42:26.325Z,9.60
2023-01-09T05:47:28.448Z,9.43
2023-01-09T05:52:31.695Z,8.37
2023-01-09T05:57:34.246Z,8.60
2023-01-09T06:02:37.004Z,8.37
2023-01-09T06:07:40.789Z,9.10
2023-01-09T06:12:47.858Z,9.27
2023-01-09T06:17:49.633Z,9.00
2023-01-09T06:22:53.009Z,8.90
2023-01-09T06:27:55.198Z,8.47
2023-01-09T06:32:57.077Z,8.93
2023-01-09T06:38:00.691Z,9.27
2023-01-09T06:43:02.968Z,9.77
2023-01-09T06:48:05.472Z,9.33
2023-01-09T06:53:08.975Z,9.37
2023-01-09T06:58:11.130Z,10.43
2023-01-09T07:03:12.889Z,9.10
2023-01-09T07:08:16.689Z,9.80
2023-01-09T07:13:18.364Z,10.40
2023-01-09T07:18:20.861Z,10.60
2023-01-09T07:23:24.662Z,9.37
2023-01-09T07:28:26.928Z,9.40
2023-01-09T07:33:28.727Z,10.17
2023-01-09T07:38:32.295Z,10.40
2023-01-09T07:43:34.490Z,9.40
2023-01-09T07:48:36.629Z,9.73
2023-01-09T07:53:40.379Z,10.03
2023-01-09T07:58:42.777Z,8.80
2023-01-09T08:03:44.470Z,9.77
2023-01-09T08:08:47.539Z,8.83
2023-01-09T08:13:50.035Z,9.07
2023-01-09T08:18:51.782Z,10.27
2023-01-09T08:23:55.204Z,9.40
2023-01-09T08:28:58.333Z,9.47
2023-01-09T08:34:00.401Z,11.00
2023-01-09T08:39:04.071Z,10.27
2023-01-09T08:44:06.656Z,9.73
2023-01-09T08:49:08.750Z,9.17
2023-01-09T08:54:12.667Z,10.33
2023-01-09T08:59:16.626Z,10.57
2023-01-09T09:04:18.762Z,9.23
2023-01-09T09:09:22.105Z,9.23
2023-01-09T09:14:25.611Z,10.60
2023-01-09T09:19:27.912Z,10.07
2023-01-09T09:24:31.658Z,9.27
2023-01-09T09:29:33.685Z,9.43
2023-01-09T09:34:35.793Z,8.83
2023-01-09T09:39:39.476Z,9.10
2023-01-09T09:44:57.861Z,8.97
2023-01-09T09:50:12.130Z,8.77
2023-01-09T09:55:19.648Z,9.03
2023-01-09T10:00:23.813Z,7.20
2023-01-09T10:05:29.783Z,8.87
2023-01-09T10:10:37.625Z,7.90
2023-01-09T10:15:46.753Z,7.83
2023-01-09T10:20:55.097Z,6.83
2023-01-09T10:26:04.684Z,6.07
2023-01-09T10:31:15.900Z,5.73
2023-01-09T10:36:35.367Z,5.60
2023-01-09T10:41:44.475Z,4.93
2023-01-09T10:46:53.461Z,4.67
2023-01-09T10:52:11.014Z,4.60
2023-01-09T10:57:30.023Z,3.37
2023-01-09T11:02:35.337Z,3.37
2023-01-09T11:07:41.979Z,3.17
2023-01-09T11:12:45.373Z,2.90
2023-01-09T11:17:48.299Z,2.93
2023-01-09T11:22:52.056Z,2.90
2023-01-09T11:28:07.003Z,2.87
2023-01-09T11:33:14.982Z,2.63
2023-01-09T11:38:18.263Z,2.50
2023-01-09T11:43:27.964Z,2.07
2023-01-09T11:48:34.063Z,1.80
2023-01-09T11:53:49.041Z,1.67
2023-01-09T11:58:53.017Z,1.23
2023-01-09T12:04:11.001Z,1.30
2023-01-09T12:09:19.640Z,1.50
2023-01-09T12:14:36.396Z,1.50
2023-01-09T12:20:05.928Z,1.30
2023-01-09T12:25:25.178Z,1.40
2023-01-09T12:30:41.198Z,1.17
2023-01-09T12:35:46.853Z,1.03
2023-01-09T12:41:10.444Z,0.90
2023-01-09T12:46:18.215Z,1.20
2023-01-09T12:51:31.871Z,0.90
2023-01-09T12:56:38.122Z,0.93
2023-01-09T13:01:46.731Z,0.80
2023-01-09T13:06:54.738Z,0.80
2023-01-09T13:12:03.254Z,0.77
2023-01-09T13:17:13.133Z,0.93
2023-01-09T13:22:16.992Z,0.60
2023-01-09T13:27:21.715Z,0.77
2023-01-09T13:32:39.645Z,0.67
2023-01-09T13:37:43.091Z,0.60
2023-01-09T13:42:45.550Z,0.73
2023-01-09T13:48:25.469Z,0.70
2023-01-09T13:53:45.869Z,0.50
2023-01-09T13:59:01.947Z,0.63
2023-01-09T14:04:36.793Z,0.73
2023-01-09T14:09:47.529Z,0.70
2023-01-09T14:14:51.747Z,0.80
2023-01-09T14:19:58.190Z,0.70
2023-01-09T14:25:08.601Z,1.07
2023-01-09T14:30:28.516Z,0.70
2023-01-09T14:35:48.550Z,0.60
2023-01-09T14:40:55.626Z,0.73
2023-01-09T14:46:04.781Z,0.97
2023-01-09T14:51:16.118Z,1.47
2023-01-09T14:56:27.759Z,0.80
2023-01-09T15:01:30.672Z,0.93
2023-01-09T15:06:38.095Z,0.77
2023-01-09T15:11:40.604Z,0.60
2023-01-09T15:16:45.220Z,0.70
2023-01-09T15:21:59.637Z,1.13
2023-01-09T15:27:05.026Z,4.27
2023-01-09T15:32:10.327Z,16.40
2023-01-09T15:37:25.287Z,6.57
2023-01-09T15:42:29.920Z,1.00
2023-01-09T15:47:32.619Z,0.63
2023-01-09T15:52:36.233Z,0.40
2023-01-09T15:57:38.394Z,0.60
2023-01-09T16:02:45.320Z,0.73
2023-01-09T16:07:51.147Z,0.80
2023-01-09T16:12:54.186Z,0.57
2023-01-09T16:18:06.981Z,0.60
2023-01-09T16:23:21.841Z,0.40
2023-01-09T16:28:25.616Z,0.77
2023-01-09T16:33:29.801Z,0.60
2023-01-09T16:38:33.413Z,0.50
2023-01-09T16:43:35.528Z,0.40
2023-01-09T16:48:38.806Z,0.53
2023-01-09T16:53:42.189Z,0.60
2023-01-09T16:58:44.689Z,0.50
2023-01-09T17:03:47.326Z,0.63
2023-01-09T17:08:50.927Z,0.67
2023-01-09T17:13:53.267Z,0.80
2023-01-09T17:18:55.359Z,1.77
2023-01-09T17:23:59.342Z,1.30
2023-01-09T17:29:02.155Z,2.10
2023-01-09T17:34:04.306Z,1.10
2023-01-09T17:39:07.775Z,0.97
2023-01-09T17:44:10.695Z,1.47
2023-01-09T17:49:16.997Z,2.27
2023-01-09T17:54:21.318Z,1.23
2023-01-09T17:59:23.499Z,1.07
2023-01-09T18:04:25.725Z,0.70
2023-01-09T18:09:29.110Z,1.00
2023-01-09T18:14:31.776Z,1.10
2023-01-09T18:19:33.793Z,0.93
2023-01-09T18:24:37.368Z,0.40
2023-01-09T18:29:39.383Z,0.67
2023-01-09T18:34:41.599Z,0.80
2023-01-09T18:39:45.033Z,0.40
2023-01-09T18:44:46.725Z,0.67
2023-01-09T18:49:48.661Z,0.67
2023-01-09T18:54:51.852Z,0.70
2023-01-09T18:59:53.626Z,0.63
2023-01-09T19:04:55.671Z,0.47
2023-01-09T19:09:59.223Z,0.50
2023-01-09T19:15:01.227Z,0.60
2023-01-09T19:20:03.374Z,0.73
2023-01-09T19:25:07.322Z,0.60
2023-01-09T19:30:10.316Z,0.70
2023-01-09T19:35:12.863Z,0.63
2023-01-09T19:40:16.967Z,0.60
2023-01-09T19:45:18.977Z,0.63
2023-01-09T19:50:21.256Z,0.70
2023-01-09T19:55:25.418Z,0.70
2023-01-09T20:00:27.269Z,0.53
2023-01-09T20:05:29.013Z,0.60
2023-01-09T20:10:33.319Z,0.63
2023-01-09T20:15:38.019Z,0.70
2023-01-09T20:25:44.151Z,0.70
2023-01-09T20:30:48.467Z,0.70
2023-01-09T20:35:50.671Z,0.70
2023-01-09T20:40:53.753Z,0.80
2023-01-09T20:45:56.085Z,0.90
2023-01-09T20:51:04.082Z,1.00
2023-01-09T20:56:08.693Z,1.20
2023-01-09T21:01:13.482Z,1.20
2023-01-09T21:06:16.428Z,1.00
2023-01-09T21:11:20.781Z,0.97
2023-01-09T21:16:23.074Z,0.87
2023-01-09T21:21:27.055Z,1.00
2023-01-09T21:26:30.781Z,1.00
2023-01-09T21:31:32.804Z,1.20
2023-01-09T21:36:35.793Z,1.13
2023-01-09T21:41:39.543Z,1.23
2023-01-09T21:46:41.322Z,0.70
2023-01-09T21:51:44.633Z,0.90
2023-01-09T21:56:48.108Z,1.30
2023-01-09T22:01:50.597Z,0.80
2023-01-09T22:06:52.771Z,0.90
2023-01-09T22:11:55.981Z,1.20
2023-01-09T22:16:58.532Z,0.90
2023-01-09T22:22:00.631Z,1.00
2023-01-09T22:27:04.189Z,1.57
2023-01-09T22:32:06.156Z,0.90
2023-01-09T22:37:08.364Z,1.10
2023-01-09T22:42:11.975Z,1.00
2023-01-09T22:47:13.835Z,1.17
2023-01-09T22:52:16.024Z,0.70
2023-01-09T22:57:19.352Z,1.00
2023-01-09T23:02:21.769Z,1.10
2023-01-09T23:07:24.339Z,1.00
2023-01-09T23:12:27.941Z,1.33
2023-01-09T23:17:30.222Z,1.10
2023-01-09T23:22:31.911Z,1.10
2023-01-09T23:27:35.619Z,0.97
2023-01-09T23:32:37.519Z,1.10
2023-01-09T23:37:39.515Z,1.00
2023-01-09T23:42:43.036Z,1.23
2023-01-09T23:47:45.217Z,1.10
2023-01-09T23:52:46.947Z,0.90
2023-01-09T23:57:51.656Z,1.10
